Terminal Aerodrome Forecast
Issued by NWS Corpus Christi, TX

Home | Current Version | Previous Version | Text Only | Print | Product List | Glossary On
Versions: 1 2 3 4 5 6 7 8 9 10 11 12 13 14 15 16 17
000
FTUS44 KCRP 171700
TAFCRP
TAF
KCRP 171730Z 1718/1818 17011G15KT P6SM VCTS SCT028CB BKN040
      TEMPO 1719/1722 4SM TSRA BKN028CB
     FM180000 16011KT P6SM FEW025 BKN250
     FM180300 16007KT P6SM FEW015 BKN250
      TEMPO 1811/1815 P6SM BKN015
     FM181600 17010KT P6SM VCSH FEW030 SCT250=

USA.gov is the U.S. government's official web portal to all federal, state and local government web resources and services.